sensor_id;sensor_type;location;lat;lon;timestamp;P1;durP1;ratioP1;P2;durP2;ratioP2
1350;SDS011;669;50.206;9.998;2023-04-03T00:01:09;1.70;;;1.60;;
1350;SDS011;669;50.206;9.998;2023-04-03T00:03:37;1.67;;;1.57;;
1350;SDS011;669;50.206;9.998;2023-04-03T00:06:09;1.23;;;1.23;;
1350;SDS011;669;50.206;9.998;2023-04-03T00:08:38;1.80;;;1.70;;
1350;SDS011;669;50.206;9.998;2023-04-03T00:11:07;3.43;;;1.70;;
1350;SDS011;669;50.206;9.998;2023-04-03T00:13:36;1.63;;;1.53;;
1350;SDS011;669;50.206;9.998;2023-04-03T00:16:05;1.90;;;1.80;;
1350;SDS011;669;50.206;9.998;2023-04-03T00:18:33;1.77;;;1.67;;
1350;SDS011;669;50.206;9.998;2023-04-03T00:21:02;1.43;;;1.33;;
1350;SDS011;669;50.206;9.998;2023-04-03T00:23:32;1.90;;;1.70;;
1350;SDS011;669;50.206;9.998;2023-04-03T00:26:00;1.87;;;1.77;;
1350;SDS011;669;50.206;9.998;2023-04-03T00:28:28;1.63;;;1.53;;
1350;SDS011;669;50.206;9.998;2023-04-03T00:30:56;1.87;;;1.73;;
1350;SDS011;669;50.206;9.998;2023-04-03T00:33:24;1.83;;;1.73;;
1350;SDS011;669;50.206;9.998;2023-04-03T00:35:52;1.53;;;1.43;;
1350;SDS011;669;50.206;9.998;2023-04-03T00:38:20;1.50;;;1.40;;
1350;SDS011;669;50.206;9.998;2023-04-03T00:40:49;1.70;;;1.60;;
1350;SDS011;669;50.206;9.998;2023-04-03T00:43:18;1.90;;;1.53;;
1350;SDS011;669;50.206;9.998;2023-04-03T00:45:49;2.27;;;2.07;;
1350;SDS011;669;50.206;9.998;2023-04-03T00:48:20;2.23;;;1.70;;
1350;SDS011;669;50.206;9.998;2023-04-03T00:50:52;2.60;;;2.13;;
1350;SDS011;669;50.206;9.998;2023-04-03T00:53:21;1.40;;;1.30;;
1350;SDS011;669;50.206;9.998;2023-04-03T00:55:53;1.80;;;1.70;;
1350;SDS011;669;50.206;9.998;2023-04-03T00:58:24;1.70;;;1.60;;
1350;SDS011;669;50.206;9.998;2023-04-03T01:00:56;1.80;;;1.70;;
1350;SDS011;669;50.206;9.998;2023-04-03T01:03:26;1.80;;;1.60;;
1350;SDS011;669;50.206;9.998;2023-04-03T01:05:54;1.80;;;1.53;;
1350;SDS011;669;50.206;9.998;2023-04-03T01:08:21;1.87;;;1.63;;
1350;SDS011;669;50.206;9.998;2023-04-03T01:10:50;1.90;;;1.43;;
1350;SDS011;669;50.206;9.998;2023-04-03T01:13:21;2.80;;;2.27;;
1350;SDS011;669;50.206;9.998;2023-04-03T01:15:51;3.50;;;2.20;;
1350;SDS011;669;50.206;9.998;2023-04-03T01:18:20;2.37;;;2.17;;
1350;SDS011;669;50.206;9.998;2023-04-03T01:26:50;5.33;;;2.83;;
1350;SDS011;669;50.206;9.998;2023-04-03T01:29:20;2.80;;;2.40;;
1350;SDS011;669;50.206;9.998;2023-04-03T01:31:52;2.60;;;2.40;;
1350;SDS011;669;50.206;9.998;2023-04-03T01:34:21;4.40;;;2.43;;
1350;SDS011;669;50.206;9.998;2023-04-03T01:36:50;3.27;;;2.40;;
1350;SDS011;669;50.206;9.998;2023-04-03T01:39:19;5.10;;;2.50;;
1350;SDS011;669;50.206;9.998;2023-04-03T01:41:47;1.97;;;1.83;;
1350;SDS011;669;50.206;9.998;2023-04-03T01:44:16;4.37;;;2.30;;
1350;SDS011;669;50.206;9.998;2023-04-03T01:46:44;3.03;;;1.97;;
1350;SDS011;669;50.206;9.998;2023-04-03T01:49:13;9.00;;;2.67;;
1350;SDS011;669;50.206;9.998;2023-04-03T01:51:41;5.83;;;3.93;;
1350;SDS011;669;50.206;9.998;2023-04-03T01:54:09;4.00;;;2.50;;
1350;SDS011;669;50.206;9.998;2023-04-03T01:56:37;5.37;;;2.00;;
1350;SDS011;669;50.206;9.998;2023-04-03T01:59:06;3.00;;;2.20;;
1350;SDS011;669;50.206;9.998;2023-04-03T02:01:34;5.10;;;2.30;;
1350;SDS011;669;50.206;9.998;2023-04-03T02:04:02;2.40;;;2.20;;
1350;SDS011;669;50.206;9.998;2023-04-03T02:06:32;4.20;;;1.93;;
1350;SDS011;669;50.206;9.998;2023-04-03T02:09:00;3.87;;;2.50;;
1350;SDS011;669;50.206;9.998;2023-04-03T02:11:28;7.63;;;2.47;;
1350;SDS011;669;50.206;9.998;2023-04-03T02:13:56;4.80;;;2.00;;
1350;SDS011;669;50.206;9.998;2023-04-03T02:16:24;6.57;;;2.40;;
1350;SDS011;669;50.206;9.998;2023-04-03T02:18:52;2.30;;;2.10;;
1350;SDS011;669;50.206;9.998;2023-04-03T02:21:20;2.20;;;2.00;;
1350;SDS011;669;50.206;9.998;2023-04-03T02:23:49;5.77;;;2.77;;
1350;SDS011;669;50.206;9.998;2023-04-03T02:26:17;4.17;;;2.50;;
1350;SDS011;669;50.206;9.998;2023-04-03T02:28:45;4.23;;;2.37;;
1350;SDS011;669;50.206;9.998;2023-04-03T02:31:13;5.70;;;2.70;;
1350;SDS011;669;50.206;9.998;2023-04-03T02:33:41;2.53;;;1.90;;
1350;SDS011;669;50.206;9.998;2023-04-03T02:36:09;3.50;;;2.30;;
1350;SDS011;669;50.206;9.998;2023-04-03T02:38:37;4.00;;;2.57;;
1350;SDS011;669;50.206;9.998;2023-04-03T02:41:08;3.10;;;2.30;;
1350;SDS011;669;50.206;9.998;2023-04-03T02:43:37;2.93;;;2.43;;
1350;SDS011;669;50.206;9.998;2023-04-03T02:46:06;3.40;;;2.60;;
1350;SDS011;669;50.206;9.998;2023-04-03T02:48:34;4.47;;;2.57;;
1350;SDS011;669;50.206;9.998;2023-04-03T02:51:03;3.50;;;1.70;;
1350;SDS011;669;50.206;9.998;2023-04-03T02:53:31;6.20;;;2.67;;
1350;SDS011;669;50.206;9.998;2023-04-03T02:55:59;4.00;;;1.97;;
1350;SDS011;669;50.206;9.998;2023-04-03T02:58:28;7.70;;;2.70;;
1350;SDS011;669;50.206;9.998;2023-04-03T03:00:56;7.30;;;1.90;;
1350;SDS011;669;50.206;9.998;2023-04-03T03:03:24;2.70;;;2.40;;
1350;SDS011;669;50.206;9.998;2023-04-03T03:06:00;7.17;;;2.43;;
1350;SDS011;669;50.206;9.998;2023-04-03T03:08:28;2.50;;;2.20;;
1350;SDS011;669;50.206;9.998;2023-04-03T03:10:56;3.57;;;2.27;;
1350;SDS011;669;50.206;9.998;2023-04-03T03:13:24;4.73;;;4.33;;
1350;SDS011;669;50.206;9.998;2023-04-03T03:15:54;4.87;;;2.67;;
1350;SDS011;669;50.206;9.998;2023-04-03T03:18:22;4.17;;;1.90;;
1350;SDS011;669;50.206;9.998;2023-04-03T03:20:51;3.20;;;2.40;;
1350;SDS011;669;50.206;9.998;2023-04-03T03:23:19;3.83;;;2.47;;
1350;SDS011;669;50.206;9.998;2023-04-03T03:25:48;3.80;;;2.77;;
1350;SDS011;669;50.206;9.998;2023-04-03T03:28:16;7.03;;;3.07;;
1350;SDS011;669;50.206;9.998;2023-04-03T03:30:44;5.40;;;2.63;;
1350;SDS011;669;50.206;9.998;2023-04-03T03:33:13;9.03;;;3.30;;
1350;SDS011;669;50.206;9.998;2023-04-03T03:35:42;5.73;;;3.10;;
1350;SDS011;669;50.206;9.998;2023-04-03T03:38:10;3.10;;;2.40;;
1350;SDS011;669;50.206;9.998;2023-04-03T03:40:38;4.60;;;2.67;;
1350;SDS011;669;50.206;9.998;2023-04-03T03:43:06;2.80;;;2.30;;
1350;SDS011;669;50.206;9.998;2023-04-03T03:45:34;3.50;;;2.60;;
1350;SDS011;669;50.206;9.998;2023-04-03T03:48:03;3.53;;;2.67;;
1350;SDS011;669;50.206;9.998;2023-04-03T03:50:32;4.00;;;2.60;;
1350;SDS011;669;50.206;9.998;2023-04-03T03:53:00;3.27;;;2.20;;
1350;SDS011;669;50.206;9.998;2023-04-03T03:55:28;4.87;;;2.40;;
1350;SDS011;669;50.206;9.998;2023-04-03T03:57:57;3.43;;;3.00;;
1350;SDS011;669;50.206;9.998;2023-04-03T04:00:26;3.00;;;2.40;;
1350;SDS011;669;50.206;9.998;2023-04-03T04:02:54;6.83;;;3.17;;
1350;SDS011;669;50.206;9.998;2023-04-03T04:05:24;5.80;;;2.47;;
1350;SDS011;669;50.206;9.998;2023-04-03T04:07:53;3.67;;;2.97;;
1350;SDS011;669;50.206;9.998;2023-04-03T04:10:21;5.97;;;3.00;;
1350;SDS011;669;50.206;9.998;2023-04-03T04:12:49;5.43;;;2.53;;
1350;SDS011;669;50.206;9.998;2023-04-03T04:15:17;6.07;;;3.00;;
1350;SDS011;669;50.206;9.998;2023-04-03T04:17:47;2.57;;;2.37;;
1350;SDS011;669;50.206;9.998;2023-04-03T04:20:15;1.93;;;1.83;;
1350;SDS011;669;50.206;9.998;2023-04-03T04:22:43;6.10;;;3.10;;
1350;SDS011;669;50.206;9.998;2023-04-03T04:25:12;6.30;;;4.00;;
1350;SDS011;669;50.206;9.998;2023-04-03T04:27:41;3.70;;;2.77;;
1350;SDS011;669;50.206;9.998;2023-04-03T04:30:09;6.57;;;3.30;;
1350;SDS011;669;50.206;9.998;2023-04-03T04:32:37;4.17;;;3.13;;
1350;SDS011;669;50.206;9.998;2023-04-03T04:35:06;3.53;;;2.93;;
1350;SDS011;669;50.206;9.998;2023-04-03T04:37:34;4.37;;;3.00;;
1350;SDS011;669;50.206;9.998;2023-04-03T04:40:02;6.20;;;4.13;;
1350;SDS011;669;50.206;9.998;2023-04-03T04:42:32;5.77;;;2.83;;
1350;SDS011;669;50.206;9.998;2023-04-03T04:45:00;7.97;;;3.90;;
1350;SDS011;669;50.206;9.998;2023-04-03T04:47:28;6.90;;;2.97;;
1350;SDS011;669;50.206;9.998;2023-04-03T04:49:56;9.73;;;3.63;;
1350;SDS011;669;50.206;9.998;2023-04-03T04:52:24;4.10;;;3.17;;
1350;SDS011;669;50.206;9.998;2023-04-03T04:54:52;3.37;;;3.07;;
1350;SDS011;669;50.206;9.998;2023-04-03T04:57:20;6.67;;;3.43;;
1350;SDS011;669;50.206;9.998;2023-04-03T04:59:49;3.63;;;3.33;;
1350;SDS011;669;50.206;9.998;2023-04-03T05:02:17;4.13;;;3.33;;
1350;SDS011;669;50.206;9.998;2023-04-03T05:04:45;2.43;;;2.23;;
1350;SDS011;669;50.206;9.998;2023-04-03T05:07:13;3.07;;;2.83;;
1350;SDS011;669;50.206;9.998;2023-04-03T05:09:41;4.00;;;2.90;;
1350;SDS011;669;50.206;9.998;2023-04-03T05:12:09;3.67;;;3.20;;
1350;SDS011;669;50.206;9.998;2023-04-03T05:14:37;3.70;;;3.40;;
1350;SDS011;669;50.206;9.998;2023-04-03T05:17:06;4.53;;;3.70;;
1350;SDS011;669;50.206;9.998;2023-04-03T05:19:34;13.50;;;3.93;;
1350;SDS011;669;50.206;9.998;2023-04-03T05:22:02;7.40;;;4.07;;
1350;SDS011;669;50.206;9.998;2023-04-03T05:24:30;4.50;;;3.53;;
1350;SDS011;669;50.206;9.998;2023-04-03T05:26:58;6.20;;;3.13;;
1350;SDS011;669;50.206;9.998;2023-04-03T05:29:26;4.43;;;3.47;;
1350;SDS011;669;50.206;9.998;2023-04-03T05:31:54;5.20;;;3.53;;
1350;SDS011;669;50.206;9.998;2023-04-03T05:34:23;4.97;;;3.33;;
1350;SDS011;669;50.206;9.998;2023-04-03T05:36:51;5.97;;;3.30;;
1350;SDS011;669;50.206;9.998;2023-04-03T05:39:19;4.17;;;2.60;;
1350;SDS011;669;50.206;9.998;2023-04-03T05:41:48;2.97;;;2.70;;
1350;SDS011;669;50.206;9.998;2023-04-03T05:44:16;3.00;;;2.47;;
1350;SDS011;669;50.206;9.998;2023-04-03T05:46:44;5.03;;;2.97;;
1350;SDS011;669;50.206;9.998;2023-04-03T05:49:12;4.30;;;2.27;;
1350;SDS011;669;50.206;9.998;2023-04-03T05:51:41;7.97;;;5.07;;
1350;SDS011;669;50.206;9.998;2023-04-03T05:54:12;3.40;;;2.60;;
1350;SDS011;669;50.206;9.998;2023-04-03T05:56:43;5.00;;;2.90;;
1350;SDS011;669;50.206;9.998;2023-04-03T05:59:11;4.00;;;2.47;;
1350;SDS011;669;50.206;9.998;2023-04-03T06:01:39;5.13;;;2.70;;
1350;SDS011;669;50.206;9.998;2023-04-03T06:04:07;6.23;;;2.90;;
1350;SDS011;669;50.206;9.998;2023-04-03T06:06:44;3.03;;;2.20;;
1350;SDS011;669;50.206;9.998;2023-04-03T06:09:14;1.80;;;1.70;;
1350;SDS011;669;50.206;9.998;2023-04-03T06:11:43;3.57;;;2.60;;
1350;SDS011;669;50.206;9.998;2023-04-03T06:14:12;3.17;;;2.60;;
1350;SDS011;669;50.206;9.998;2023-04-03T06:16:40;4.20;;;2.30;;
1350;SDS011;669;50.206;9.998;2023-04-03T06:19:08;3.43;;;2.13;;
1350;SDS011;669;50.206;9.998;2023-04-03T06:21:37;2.40;;;2.20;;
1350;SDS011;669;50.206;9.998;2023-04-03T06:24:07;4.10;;;2.37;;
1350;SDS011;669;50.206;9.998;2023-04-03T06:26:35;3.00;;;2.37;;
1350;SDS011;669;50.206;9.998;2023-04-03T06:29:03;3.13;;;1.83;;
1350;SDS011;669;50.206;9.998;2023-04-03T06:31:31;3.07;;;2.17;;
1350;SDS011;669;50.206;9.998;2023-04-03T06:33:59;3.57;;;2.20;;
1350;SDS011;669;50.206;9.998;2023-04-03T06:36:27;4.90;;;3.00;;
1350;SDS011;669;50.206;9.998;2023-04-03T06:38:56;3.40;;;2.27;;
1350;SDS011;669;50.206;9.998;2023-04-03T06:41:25;4.83;;;2.53;;
1350;SDS011;669;50.206;9.998;2023-04-03T06:43:53;2.80;;;1.60;;
1350;SDS011;669;50.206;9.998;2023-04-03T06:46:22;6.90;;;3.03;;
1350;SDS011;669;50.206;9.998;2023-04-03T06:48:52;2.67;;;2.30;;
1350;SDS011;669;50.206;9.998;2023-04-03T06:51:21;3.80;;;2.00;;
1350;SDS011;669;50.206;9.998;2023-04-03T06:53:51;2.57;;;1.73;;
1350;SDS011;669;50.206;9.998;2023-04-03T06:56:20;3.00;;;1.77;;
1350;SDS011;669;50.206;9.998;2023-04-03T06:58:51;3.57;;;2.53;;
1350;SDS011;669;50.206;9.998;2023-04-03T07:01:20;8.67;;;2.60;;
1350;SDS011;669;50.206;9.998;2023-04-03T07:03:48;3.50;;;2.37;;
1350;SDS011;669;50.206;9.998;2023-04-03T07:06:17;1.63;;;1.53;;
1350;SDS011;669;50.206;9.998;2023-04-03T07:08:45;2.23;;;2.00;;
1350;SDS011;669;50.206;9.998;2023-04-03T07:11:14;3.73;;;2.63;;
1350;SDS011;669;50.206;9.998;2023-04-03T07:13:43;4.57;;;2.60;;
1350;SDS011;669;50.206;9.998;2023-04-03T07:16:12;6.80;;;2.30;;
1350;SDS011;669;50.206;9.998;2023-04-03T07:18:40;5.50;;;2.23;;
1350;SDS011;669;50.206;9.998;2023-04-03T07:21:08;3.93;;;2.30;;
1350;SDS011;669;50.206;9.998;2023-04-03T07:23:36;3.57;;;2.13;;
1350;SDS011;669;50.206;9.998;2023-04-03T07:26:04;2.93;;;1.87;;
1350;SDS011;669;50.206;9.998;2023-04-03T07:28:32;5.67;;;2.40;;
1350;SDS011;669;50.206;9.998;2023-04-03T07:31:01;3.80;;;2.23;;
1350;SDS011;669;50.206;9.998;2023-04-03T07:33:32;3.33;;;2.17;;
1350;SDS011;669;50.206;9.998;2023-04-03T07:36:01;6.80;;;2.70;;
1350;SDS011;669;50.206;9.998;2023-04-03T07:38:30;2.23;;;2.07;;
1350;SDS011;669;50.206;9.998;2023-04-03T07:40:58;2.90;;;2.47;;
1350;SDS011;669;50.206;9.998;2023-04-03T07:43:26;4.00;;;2.60;;
1350;SDS011;669;50.206;9.998;2023-04-03T07:45:54;2.20;;;2.00;;
1350;SDS011;669;50.206;9.998;2023-04-03T07:48:22;3.57;;;2.13;;
1350;SDS011;669;50.206;9.998;2023-04-03T07:50:53;2.93;;;2.67;;
1350;SDS011;669;50.206;9.998;2023-04-03T07:53:21;2.57;;;2.37;;
1350;SDS011;669;50.206;9.998;2023-04-03T07:55:49;3.20;;;2.60;;
1350;SDS011;669;50.206;9.998;2023-04-03T07:58:21;3.13;;;2.53;;
1350;SDS011;669;50.206;9.998;2023-04-03T08:00:49;3.87;;;2.63;;
1350;SDS011;669;50.206;9.998;2023-04-03T08:03:17;7.20;;;3.53;;
1350;SDS011;669;50.206;9.998;2023-04-03T08:05:46;4.50;;;3.43;;
1350;SDS011;669;50.206;9.998;2023-04-03T08:08:17;2.47;;;2.20;;
1350;SDS011;669;50.206;9.998;2023-04-03T08:10:48;3.10;;;2.50;;
1350;SDS011;669;50.206;9.998;2023-04-03T08:13:16;3.80;;;2.37;;
1350;SDS011;669;50.206;9.998;2023-04-03T08:15:44;3.37;;;2.73;;
1350;SDS011;669;50.206;9.998;2023-04-03T08:18:12;3.07;;;2.40;;
1350;SDS011;669;50.206;9.998;2023-04-03T08:20:41;4.10;;;2.03;;
1350;SDS011;669;50.206;9.998;2023-04-03T08:23:10;2.40;;;2.27;;
1350;SDS011;669;50.206;9.998;2023-04-03T08:25:40;5.50;;;2.60;;
1350;SDS011;669;50.206;9.998;2023-04-03T08:28:09;5.90;;;1.93;;
1350;SDS011;669;50.206;9.998;2023-04-03T08:30:38;3.03;;;1.77;;
1350;SDS011;669;50.206;9.998;2023-04-03T08:33:07;5.00;;;2.73;;
1350;SDS011;669;50.206;9.998;2023-04-03T08:35:38;5.87;;;2.63;;
1350;SDS011;669;50.206;9.998;2023-04-03T08:38:08;2.43;;;2.23;;
1350;SDS011;669;50.206;9.998;2023-04-03T08:40:36;3.47;;;2.47;;
1350;SDS011;669;50.206;9.998;2023-04-03T08:43:10;2.73;;;2.53;;
1350;SDS011;669;50.206;9.998;2023-04-03T08:45:55;2.47;;;2.10;;
1350;SDS011;669;50.206;9.998;2023-04-03T08:48:26;2.03;;;1.83;;
1350;SDS011;669;50.206;9.998;2023-04-03T08:50:59;3.77;;;2.10;;
1350;SDS011;669;50.206;9.998;2023-04-03T08:53:39;3.30;;;2.60;;
1350;SDS011;669;50.206;9.998;2023-04-03T08:56:10;3.00;;;2.30;;
1350;SDS011;669;50.206;9.998;2023-04-03T08:58:46;3.27;;;2.43;;
1350;SDS011;669;50.206;9.998;2023-04-03T09:01:19;3.60;;;2.20;;
1350;SDS011;669;50.206;9.998;2023-04-03T09:03:50;3.53;;;2.13;;
1350;SDS011;669;50.206;9.998;2023-04-03T09:06:19;4.40;;;2.40;;
1350;SDS011;669;50.206;9.998;2023-04-03T09:08:50;4.77;;;2.77;;
1350;SDS011;669;50.206;9.998;2023-04-03T09:11:25;4.10;;;1.87;;
1350;SDS011;669;50.206;9.998;2023-04-03T09:13:59;3.53;;;2.20;;
1350;SDS011;669;50.206;9.998;2023-04-03T09:16:33;3.83;;;2.70;;
1350;SDS011;669;50.206;9.998;2023-04-03T09:19:09;4.90;;;2.40;;
1350;SDS011;669;50.206;9.998;2023-04-03T09:21:46;3.07;;;2.10;;
1350;SDS011;669;50.206;9.998;2023-04-03T09:24:15;2.43;;;2.13;;
1350;SDS011;669;50.206;9.998;2023-04-03T09:26:45;2.00;;;1.90;;
1350;SDS011;669;50.206;9.998;2023-04-03T09:29:19;3.93;;;2.37;;
1350;SDS011;669;50.206;9.998;2023-04-03T09:31:50;4.33;;;2.20;;
1350;SDS011;669;50.206;9.998;2023-04-03T09:34:23;2.07;;;1.90;;
1350;SDS011;669;50.206;9.998;2023-04-03T09:36:54;3.33;;;1.90;;
1350;SDS011;669;50.206;9.998;2023-04-03T09:39:24;2.30;;;2.10;;
1350;SDS011;669;50.206;9.998;2023-04-03T09:41:55;4.73;;;3.00;;
1350;SDS011;669;50.206;9.998;2023-04-03T09:44:26;3.47;;;1.57;;
1350;SDS011;669;50.206;9.998;2023-04-03T09:46:56;4.83;;;2.10;;
1350;SDS011;669;50.206;9.998;2023-04-03T09:49:24;2.00;;;1.47;;
1350;SDS011;669;50.206;9.998;2023-04-03T09:51:52;3.90;;;1.53;;
1350;SDS011;669;50.206;9.998;2023-04-03T09:54:24;2.33;;;2.00;;
1350;SDS011;669;50.206;9.998;2023-04-03T09:57:06;1.50;;;1.40;;
1350;SDS011;669;50.206;9.998;2023-04-03T09:59:46;2.33;;;1.63;;
1350;SDS011;669;50.206;9.998;2023-04-03T10:02:28;2.00;;;1.90;;
1350;SDS011;669;50.206;9.998;2023-04-03T10:05:01;5.13;;;2.10;;
1350;SDS011;669;50.206;9.998;2023-04-03T10:07:33;2.47;;;1.70;;
1350;SDS011;669;50.206;9.998;2023-04-03T10:10:21;2.33;;;1.57;;
1350;SDS011;669;50.206;9.998;2023-04-03T10:13:03;2.63;;;1.70;;
1350;SDS011;669;50.206;9.998;2023-04-03T10:15:38;2.90;;;2.30;;
1350;SDS011;669;50.206;9.998;2023-04-03T10:18:26;8.50;;;1.90;;
1350;SDS011;669;50.206;9.998;2023-04-03T10:20:59;1.97;;;1.53;;
1350;SDS011;669;50.206;9.998;2023-04-03T10:23:44;2.13;;;1.30;;
1350;SDS011;669;50.206;9.998;2023-04-03T10:26:20;2.07;;;1.87;;
1350;SDS011;669;50.206;9.998;2023-04-03T10:29:00;3.33;;;1.70;;
1350;SDS011;669;50.206;9.998;2023-04-03T10:31:37;2.23;;;1.77;;
1350;SDS011;669;50.206;9.998;2023-04-03T10:34:15;2.60;;;1.50;;
1350;SDS011;669;50.206;9.998;2023-04-03T10:36:50;1.93;;;1.27;;
1350;SDS011;669;50.206;9.998;2023-04-03T10:39:27;3.33;;;2.10;;
1350;SDS011;669;50.206;9.998;2023-04-03T10:42:02;3.60;;;1.83;;
1350;SDS011;669;50.206;9.998;2023-04-03T10:44:48;2.30;;;1.53;;
1350;SDS011;669;50.206;9.998;2023-04-03T10:47:29;2.50;;;1.30;;
1350;SDS011;669;50.206;9.998;2023-04-03T10:50:08;2.40;;;1.50;;
1350;SDS011;669;50.206;9.998;2023-04-03T10:52:51;4.70;;;1.70;;
1350;SDS011;669;50.206;9.998;2023-04-03T10:55:25;1.60;;;1.50;;
1350;SDS011;669;50.206;9.998;2023-04-03T10:58:01;0.70;;;0.70;;
1350;SDS011;669;50.206;9.998;2023-04-03T11:00:33;2.53;;;1.47;;
1350;SDS011;669;50.206;9.998;2023-04-03T11:03:08;1.37;;;1.27;;
1350;SDS011;669;50.206;9.998;2023-04-03T11:05:42;2.67;;;1.93;;
1350;SDS011;669;50.206;9.998;2023-04-03T11:08:13;3.60;;;1.40;;
1350;SDS011;669;50.206;9.998;2023-04-03T11:10:51;1.93;;;0.93;;
1350;SDS011;669;50.206;9.998;2023-04-03T11:13:24;1.53;;;1.20;;
1350;SDS011;669;50.206;9.998;2023-04-03T11:15:59;1.07;;;0.90;;
1350;SDS011;669;50.206;9.998;2023-04-03T11:18:31;1.20;;;1.10;;
1350;SDS011;669;50.206;9.998;2023-04-03T11:21:06;2.47;;;1.00;;
1350;SDS011;669;50.206;9.998;2023-04-03T11:23:38;1.40;;;1.30;;
1350;SDS011;669;50.206;9.998;2023-04-03T11:26:16;1.70;;;1.27;;
1350;SDS011;669;50.206;9.998;2023-04-03T11:28:47;1.53;;;1.43;;
1350;SDS011;669;50.206;9.998;2023-04-03T11:31:24;3.07;;;1.20;;
1350;SDS011;669;50.206;9.998;2023-04-03T11:34:05;1.90;;;1.70;;
1350;SDS011;669;50.206;9.998;2023-04-03T11:36:42;3.07;;;1.87;;
1350;SDS011;669;50.206;9.998;2023-04-03T11:39:16;2.80;;;1.43;;
1350;SDS011;669;50.206;9.998;2023-04-03T11:41:49;2.10;;;1.37;;
1350;SDS011;669;50.206;9.998;2023-04-03T11:44:33;4.20;;;1.90;;
1350;SDS011;669;50.206;9.998;2023-04-03T11:47:04;3.83;;;1.50;;
1350;SDS011;669;50.206;9.998;2023-04-03T11:49:57;2.90;;;1.90;;
1350;SDS011;669;50.206;9.998;2023-04-03T11:58:20;3.97;;;1.93;;
1350;SDS011;669;50.206;9.998;2023-04-03T12:00:53;3.43;;;2.00;;
1350;SDS011;669;50.206;9.998;2023-04-03T12:03:29;2.40;;;1.90;;
1350;SDS011;669;50.206;9.998;2023-04-03T12:09:31;3.20;;;2.50;;
1350;SDS011;669;50.206;9.998;2023-04-03T12:12:27;3.30;;;1.80;;
1350;SDS011;669;50.206;9.998;2023-04-03T12:14:55;2.53;;;2.13;;
1350;SDS011;669;50.206;9.998;2023-04-03T12:17:50;2.50;;;1.83;;
1350;SDS011;669;50.206;9.998;2023-04-03T12:23:25;2.00;;;1.73;;
1350;SDS011;669;50.206;9.998;2023-04-03T12:25:59;1.80;;;1.70;;
1350;SDS011;669;50.206;9.998;2023-04-03T12:28:36;3.40;;;1.97;;
1350;SDS011;669;50.206;9.998;2023-04-03T12:31:06;3.37;;;1.87;;
1350;SDS011;669;50.206;9.998;2023-04-03T12:33:51;4.20;;;2.10;;
1350;SDS011;669;50.206;9.998;2023-04-03T12:36:34;4.50;;;1.80;;
1350;SDS011;669;50.206;9.998;2023-04-03T12:39:14;3.03;;;1.70;;
1350;SDS011;669;50.206;9.998;2023-04-03T12:42:02;3.23;;;2.13;;
1350;SDS011;669;50.206;9.998;2023-04-03T12:44:45;5.90;;;2.23;;
1350;SDS011;669;50.206;9.998;2023-04-03T12:47:24;2.90;;;2.00;;
1350;SDS011;669;50.206;9.998;2023-04-03T12:49:55;1.97;;;1.80;;
1350;SDS011;669;50.206;9.998;2023-04-03T12:52:30;2.90;;;1.70;;
1350;SDS011;669;50.206;9.998;2023-04-03T12:55:03;2.10;;;1.53;;
1350;SDS011;669;50.206;9.998;2023-04-03T12:57:36;1.77;;;1.60;;
1350;SDS011;669;50.206;9.998;2023-04-03T13:00:18;1.90;;;1.70;;
1350;SDS011;669;50.206;9.998;2023-04-03T13:02:48;2.97;;;1.47;;
1350;SDS011;669;50.206;9.998;2023-04-03T13:05:16;4.67;;;1.40;;
1350;SDS011;669;50.206;9.998;2023-04-03T13:07:48;3.53;;;1.60;;
1350;SDS011;669;50.206;9.998;2023-04-03T13:10:19;1.90;;;1.67;;
1350;SDS011;669;50.206;9.998;2023-04-03T13:12:48;1.73;;;1.37;;
1350;SDS011;669;50.206;9.998;2023-04-03T13:15:18;1.63;;;1.53;;
1350;SDS011;669;50.206;9.998;2023-04-03T13:17:49;1.70;;;1.37;;
1350;SDS011;669;50.206;9.998;2023-04-03T13:20:20;1.23;;;1.13;;
1350;SDS011;669;50.206;9.998;2023-04-03T13:22:57;2.50;;;1.40;;
1350;SDS011;669;50.206;9.998;2023-04-03T13:25:30;2.67;;;1.63;;
1350;SDS011;669;50.206;9.998;2023-04-03T13:28:01;3.80;;;1.50;;
1350;SDS011;669;50.206;9.998;2023-04-03T13:30:39;2.93;;;1.80;;
1350;SDS011;669;50.206;9.998;2023-04-03T13:33:21;3.40;;;1.50;;
1350;SDS011;669;50.206;9.998;2023-04-03T13:35:54;2.40;;;1.40;;
1350;SDS011;669;50.206;9.998;2023-04-03T13:38:24;1.17;;;0.87;;
1350;SDS011;669;50.206;9.998;2023-04-03T13:40:55;1.27;;;1.20;;
1350;SDS011;669;50.206;9.998;2023-04-03T13:43:28;1.63;;;1.57;;
1350;SDS011;669;50.206;9.998;2023-04-03T13:45:58;1.43;;;1.30;;
1350;SDS011;669;50.206;9.998;2023-04-03T13:48:35;2.73;;;1.60;;
1350;SDS011;669;50.206;9.998;2023-04-03T13:51:05;2.50;;;1.20;;
1350;SDS011;669;50.206;9.998;2023-04-03T13:53:45;1.87;;;1.13;;
1350;SDS011;669;50.206;9.998;2023-04-03T13:56:19;3.30;;;1.47;;
1350;SDS011;669;50.206;9.998;2023-04-03T13:58:53;2.57;;;1.23;;
1350;SDS011;669;50.206;9.998;2023-04-03T14:01:23;1.90;;;1.03;;
1350;SDS011;669;50.206;9.998;2023-04-03T14:03:53;0.90;;;0.90;;
1350;SDS011;669;50.206;9.998;2023-04-03T14:06:23;10.73;;;1.37;;
1350;SDS011;669;50.206;9.998;2023-04-03T14:08:51;1.90;;;1.03;;
1350;SDS011;669;50.206;9.998;2023-04-03T14:11:22;4.17;;;1.20;;
1350;SDS011;669;50.206;9.998;2023-04-03T14:13:51;2.20;;;1.30;;
1350;SDS011;669;50.206;9.998;2023-04-03T14:16:21;2.80;;;1.40;;
1350;SDS011;669;50.206;9.998;2023-04-03T14:18:53;1.83;;;1.67;;
1350;SDS011;669;50.206;9.998;2023-04-03T14:21:21;1.53;;;1.17;;
1350;SDS011;669;50.206;9.998;2023-04-03T14:23:49;4.33;;;1.60;;
1350;SDS011;669;50.206;9.998;2023-04-03T14:26:19;2.00;;;1.07;;
1350;SDS011;669;50.206;9.998;2023-04-03T14:28:50;1.80;;;1.17;;
1350;SDS011;669;50.206;9.998;2023-04-03T14:31:20;1.00;;;0.90;;
1350;SDS011;669;50.206;9.998;2023-04-03T14:33:49;0.83;;;0.83;;
1350;SDS011;669;50.206;9.998;2023-04-03T14:36:18;2.03;;;1.13;;
1350;SDS011;669;50.206;9.998;2023-04-03T14:38:48;1.53;;;1.03;;
1350;SDS011;669;50.206;9.998;2023-04-03T14:41:17;1.10;;;1.00;;
1350;SDS011;669;50.206;9.998;2023-04-03T14:43:47;2.77;;;1.00;;
1350;SDS011;669;50.206;9.998;2023-04-03T14:46:17;2.53;;;1.40;;
1350;SDS011;669;50.206;9.998;2023-04-03T14:48:49;5.40;;;1.47;;
1350;SDS011;669;50.206;9.998;2023-04-03T14:51:17;1.90;;;1.03;;
1350;SDS011;669;50.206;9.998;2023-04-03T14:53:45;1.60;;;1.10;;
1350;SDS011;669;50.206;9.998;2023-04-03T14:56:13;1.20;;;1.10;;
1350;SDS011;669;50.206;9.998;2023-04-03T14:58:44;4.33;;;1.90;;
1350;SDS011;669;50.206;9.998;2023-04-03T15:01:17;2.20;;;1.20;;
1350;SDS011;669;50.206;9.998;2023-04-03T15:03:45;1.30;;;1.20;;
1350;SDS011;669;50.206;9.998;2023-04-03T15:06:13;2.37;;;1.57;;
1350;SDS011;669;50.206;9.998;2023-04-03T15:08:42;3.00;;;0.70;;
1350;SDS011;669;50.206;9.998;2023-04-03T15:11:13;1.40;;;1.30;;
1350;SDS011;669;50.206;9.998;2023-04-03T15:13:41;1.13;;;1.00;;
1350;SDS011;669;50.206;9.998;2023-04-03T15:16:12;2.60;;;1.40;;
1350;SDS011;669;50.206;9.998;2023-04-03T15:18:44;1.20;;;1.10;;
1350;SDS011;669;50.206;9.998;2023-04-03T15:21:13;1.90;;;1.60;;
1350;SDS011;669;50.206;9.998;2023-04-03T15:23:41;2.20;;;1.17;;
1350;SDS011;669;50.206;9.998;2023-04-03T15:26:09;2.70;;;1.30;;
1350;SDS011;669;50.206;9.998;2023-04-03T15:28:38;1.23;;;1.03;;
1350;SDS011;669;50.206;9.998;2023-04-03T15:31:08;1.93;;;1.53;;
1350;SDS011;669;50.206;9.998;2023-04-03T15:33:36;1.77;;;1.47;;
1350;SDS011;669;50.206;9.998;2023-04-03T15:36:06;3.67;;;1.50;;
1350;SDS011;669;50.206;9.998;2023-04-03T15:38:54;1.70;;;1.00;;
1350;SDS011;669;50.206;9.998;2023-04-03T15:41:22;4.33;;;1.80;;
1350;SDS011;669;50.206;9.998;2023-04-03T15:43:50;2.57;;;1.90;;
1350;SDS011;669;50.206;9.998;2023-04-03T15:46:18;2.13;;;1.33;;
1350;SDS011;669;50.206;9.998;2023-04-03T15:48:46;2.25;;;1.42;;
1350;SDS011;669;50.206;9.998;2023-04-03T15:51:17;1.40;;;1.30;;
1350;SDS011;669;50.206;9.998;2023-04-03T15:53:45;1.53;;;1.43;;
1350;SDS011;669;50.206;9.998;2023-04-03T15:56:13;4.63;;;1.50;;
1350;SDS011;669;50.206;9.998;2023-04-03T15:58:41;2.43;;;1.50;;
1350;SDS011;669;50.206;9.998;2023-04-03T16:01:09;1.87;;;1.10;;
1350;SDS011;669;50.206;9.998;2023-04-03T16:03:39;1.37;;;1.27;;
1350;SDS011;669;50.206;9.998;2023-04-03T16:06:11;1.33;;;1.20;;
1350;SDS011;669;50.206;9.998;2023-04-03T16:08:41;3.03;;;1.17;;
1350;SDS011;669;50.206;9.998;2023-04-03T16:11:09;3.10;;;1.53;;